Terminal Aerodrome Forecast
Issued by NWS

Current Version | Previous Version | Text Only | Print | Product List | Glossary On
Versions: 1 2 3 4 5 6 7 8 9 10 11 12 13 14 15 16 17
000
FTUS44 KLZK 021100
TAFLLQ
TAF
KLLQ 021120Z 0212/0312 18005KT P6SM OVC006
     FM021500 22008KT P6SM BKN015 OVC040
     FM021800 22010KT P6SM SCT040 BKN080
     FM030100 19006KT P6SM SCT080
     FM030800 20006KT 5SM BR SCT015 BKN250=

USA.gov is the U.S. government's official web portal to all federal, state and local government web resources and services.